Time;durP1;ratioP1;P1;durP2;ratioP2;P2;SDS_P1;SDS_P2;PMS_P1;PMS_P2;Temp;Humidity;BMP_temperature;BMP_pressure;BME280_temperature;BME280_humidity;BME280_pressure;Samples;Min_cycle;Max_cycle;Signal;HPM_P1;HPM_P2
2022/05/07 00:00:12;;;;;;;7.43;3.40;;;;;;;13.55;49.20;100301.97;5073017;28;20158;-58
2022/05/07 00:02:42;;;;;;;12.43;3.30;;;;;;;13.55;48.42;100301.09;5072519;28;20052;-58
2022/05/07 00:05:15;;;;;;;70.00;23.58;;;;;;;13.59;48.01;100298.34;5071283;28;20052;-58
2022/05/07 00:07:45;;;;;;;35.78;12.07;;;;;;;13.70;47.91;100284.91;5072906;28;20059;-58
2022/05/07 00:10:16;;;;;;;11.07;3.95;;;;;;;13.80;47.55;100261.84;5070527;28;20087;-58
2022/05/07 00:12:47;;;;;;;20.38;7.40;;;;;;;14.16;47.07;100299.31;5072906;28;20108;-58
2022/05/07 00:15:18;;;;;;;11.70;5.03;;;;;;;14.34;46.74;100297.03;5073190;28;20059;-58
2022/05/07 00:18:03;;;;;;;9.23;3.45;;;;;;;14.52;45.20;100285.91;5072908;28;20060;-57
2022/05/07 00:20:36;;;;;;;9.77;3.50;;;;;;;15.01;45.85;100283.47;5072758;28;20119;-57
2022/05/07 00:23:07;;;;;;;7.25;3.50;;;;;;;15.34;44.91;100273.53;5073131;28;20085;-58
2022/05/07 00:25:38;;;;;;;10.50;2.90;;;;;;;15.34;43.46;100265.63;5073297;28;20159;-57
2022/05/07 00:28:08;;;;;;;8.57;3.57;;;;;;;15.22;44.23;100266.91;5072525;28;20328;-57
2022/05/07 00:30:39;;;;;;;6.47;2.97;;;;;;;15.37;44.95;100273.41;5071201;28;21267;-57
2022/05/07 00:33:10;;;;;;;9.07;3.10;;;;;;;15.14;42.85;100286.53;5072793;28;20381;-57
2022/05/07 00:35:42;;;;;;;9.60;3.38;;;;;;;14.72;43.94;100287.06;5072345;28;20283;-57
2022/05/07 00:38:13;;;;;;;8.77;3.70;;;;;;;14.64;44.38;100282.91;5072956;28;20056;-57
2022/05/07 00:40:43;;;;;;;10.97;3.00;;;;;;;14.77;45.07;100269.38;5072906;28;20273;-57
2022/05/07 00:43:15;;;;;;;7.50;3.13;;;;;;;15.01;43.62;100273.78;5071181;28;20290;-57
2022/05/07 00:45:47;;;;;;;8.63;3.50;;;;;;;14.84;43.77;100270.88;5072033;28;20275;-57
2022/05/07 00:48:18;;;;;;;7.00;3.07;;;;;;;14.92;44.27;100274.09;5068718;28;20070;-57
2022/05/07 00:53:40;;;;;;;13.10;4.97;;;;;;;15.47;44.74;100272.16;5075678;28;20310;-57
2022/05/07 00:56:11;;;;;;;15.47;6.00;;;;;;;15.66;44.85;100267.06;5073927;28;20224;-57
2022/05/07 00:58:42;;;;;;;8.47;3.70;;;;;;;15.79;43.66;100266.66;5074618;28;20283;-57
2022/05/07 01:01:12;;;;;;;9.40;3.40;;;;;;;15.94;43.85;100261.66;5074952;28;20290;-57
2022/05/07 01:03:45;;;;;;;16.17;6.67;;;;;;;16.11;44.26;100257.50;5073622;28;20790;-57
2022/05/07 01:06:18;;;;;;;11.93;4.73;;;;;;;16.22;43.05;100251.81;5075085;28;20275;-58
2022/05/07 01:08:50;;;;;;;17.93;5.70;;;;;;;16.37;43.52;100248.53;5074497;28;20283;-57
2022/05/07 01:11:22;;;;;;;10.50;3.87;;;;;;;16.29;44.11;100209.31;5074807;28;20319;-57
2022/05/07 01:13:54;;;;;;;10.23;3.37;;;;;;;16.39;42.71;100255.47;5073075;28;20619;-57
2022/05/07 01:16:26;;;;;;;18.17;4.40;;;;;;;16.23;43.25;100251.75;5074352;28;20283;-58
2022/05/07 01:18:56;;;;;;;11.60;3.67;;;;;;;16.14;43.56;100246.84;5074694;28;20364;-57
2022/05/07 01:21:29;;;;;;;6.03;3.70;;;;;;;16.09;42.79;100249.66;5074465;28;20725;-56
2022/05/07 01:24:00;;;;;;;8.77;3.60;;;;;;;16.17;43.44;100230.88;5070943;28;20520;-56
2022/05/07 01:26:30;;;;;;;8.07;3.33;;;;;;;16.28;42.18;100233.97;5069614;28;20924;-56
2022/05/07 01:29:03;;;;;;;9.73;3.83;;;;;;;16.07;41.83;100224.28;5070256;28;20271;-56
2022/05/07 01:31:34;;;;;;;10.53;3.30;;;;;;;16.02;41.95;100226.22;5070166;28;20283;-57
2022/05/07 01:34:05;;;;;;;9.20;3.30;;;;;;;16.02;42.17;100236.78;5074630;28;20286;-57
2022/05/07 01:36:37;;;;;;;7.73;3.67;;;;;;;16.17;42.46;100226.50;5072567;28;20326;-57
2022/05/07 01:39:08;;;;;;;12.57;4.13;;;;;;;16.35;43.23;100230.16;5073807;28;20348;-56
2022/05/07 01:41:38;;;;;;;9.77;3.90;;;;;;;16.62;45.18;100227.28;5074201;28;20298;-58
2022/05/07 01:44:09;;;;;;;16.43;3.70;;;;;;;16.78;44.49;100233.69;5075457;28;20287;-58
2022/05/07 01:49:28;;;;;;;21.50;4.97;;;;;;;17.00;44.37;100232.78;5068958;28;20305;-58
2022/05/07 01:52:00;;;;;;;15.30;4.80;;;;;;;16.99;44.11;100241.59;5073502;28;20348;-59
2022/05/07 01:54:31;;;;;;;20.30;5.60;;;;;;;16.94;44.38;100243.56;5074728;28;20287;-58
2022/05/07 01:57:01;;;;;;;15.83;4.47;;;;;;;16.97;43.75;100232.88;5073790;28;20297;-58
2022/05/07 01:59:32;;;;;;;11.57;4.13;;;;;;;16.93;43.64;100226.03;5069993;28;20353;-57
2022/05/07 02:02:03;;;;;;;9.97;3.77;;;;;;;16.65;43.03;100235.09;5073013;28;20279;-59
2022/05/07 02:04:34;;;;;;;11.13;4.30;;;;;;;16.55;44.85;100233.78;5073465;28;20349;-57
2022/05/07 02:07:07;;;;;;;8.97;3.60;;;;;;;16.71;44.67;100232.19;5073167;28;20278;-57
2022/05/07 02:09:37;;;;;;;8.30;2.97;;;;;;;16.78;44.40;100223.13;5073775;28;20322;-57
2022/05/07 02:12:09;;;;;;;8.03;2.80;;;;;;;16.77;43.93;100221.38;5073324;28;20299;-56
2022/05/07 02:14:40;;;;;;;10.23;2.70;;;;;;;16.74;42.86;100221.50;5075364;28;20596;-56
2022/05/07 02:17:10;;;;;;;6.10;2.40;;;;;;;16.59;43.51;100185.22;5072037;28;20328;-59
2022/05/07 02:19:41;;;;;;;7.00;2.50;;;;;;;16.85;42.94;100212.28;5071422;28;20293;-58
2022/05/07 02:22:13;;;;;;;10.37;2.53;;;;;;;16.86;43.17;100208.75;5073194;28;20282;-58
2022/05/07 02:24:44;;;;;;;13.60;2.30;;;;;;;16.88;43.37;100217.47;5073651;28;20283;-58
2022/05/07 02:27:15;;;;;;;10.20;2.23;;;;;;;16.92;43.67;100229.59;5073307;28;20305;-58
2022/05/07 02:29:46;;;;;;;4.53;2.70;;;;;;;16.79;43.98;100214.28;5073166;28;20275;-59
2022/05/07 02:32:17;;;;;;;5.43;2.70;;;;;;;16.80;43.94;100205.47;5072097;28;20305;-58
2022/05/07 02:34:48;;;;;;;6.67;2.37;;;;;;;16.75;44.37;100183.66;5072517;28;20378;-56
2022/05/07 02:37:21;;;;;;;6.50;2.20;;;;;;;16.85;43.56;100191.19;5072692;28;20283;-57
2022/05/07 02:39:53;;;;;;;6.00;2.10;;;;;;;16.81;43.61;100196.59;5072332;28;20350;-56
2022/05/07 02:42:36;;;;;;;8.23;2.43;;;;;;;16.74;43.61;100184.56;5074764;28;20287;-57
2022/05/07 02:45:08;;;;;;;6.87;2.27;;;;;;;16.71;43.88;100189.97;5074653;28;20317;-57
2022/05/07 02:47:40;;;;;;;4.90;1.90;;;;;;;16.78;43.96;100194.09;5071536;28;20330;-57
2022/05/07 02:50:12;;;;;;;4.73;2.17;;;;;;;16.80;44.06;100179.06;5070521;28;20293;-60
2022/05/07 02:52:44;;;;;;;4.13;2.07;;;;;;;16.86;44.35;100188.50;5072059;28;20306;-59
2022/05/07 02:55:15;;;;;;;9.27;2.40;;;;;;;16.86;43.80;100179.72;5071318;28;20279;-58
2022/05/07 02:57:46;;;;;;;12.63;2.93;;;;;;;16.81;44.00;100170.22;5070797;28;20370;-58
2022/05/07 03:00:18;;;;;;;6.90;2.30;;;;;;;16.78;43.87;100175.63;5072022;28;20366;-58
2022/05/07 03:02:48;;;;;;;9.53;2.40;;;;;;;16.81;44.14;100179.91;5072278;28;20287;-58
2022/05/07 03:05:19;;;;;;;9.37;2.83;;;;;;;16.80;44.17;100179.06;5072138;28;20303;-59
2022/05/07 03:07:53;;;;;;;8.23;2.10;;;;;;;16.67;43.76;100183.09;5072028;28;20285;-59
2022/05/07 03:10:24;;;;;;;11.17;2.70;;;;;;;16.45;44.36;100162.09;5072136;28;20314;-59
2022/05/07 03:12:54;;;;;;;9.97;2.83;;;;;;;16.37;44.69;100170.31;5068591;28;20623;-58
2022/05/07 03:15:25;;;;;;;4.73;2.70;;;;;;;16.25;45.00;100165.56;5069061;28;20297;-58
2022/05/07 03:17:56;;;;;;;9.63;3.07;;;;;;;16.19;46.89;100176.34;5071253;28;20291;-59
2022/05/07 03:20:27;;;;;;;8.93;3.50;;;;;;;16.13;48.54;100176.59;5071912;28;20644;-60
2022/05/07 03:22:59;;;;;;;6.50;2.87;;;;;;;15.99;49.38;100161.31;5072298;28;20477;-58
2022/05/07 03:25:29;;;;;;;7.93;2.80;;;;;;;15.98;49.31;100166.69;5069661;28;20299;-58
2022/05/07 03:28:00;;;;;;;9.57;3.27;;;;;;;15.96;49.69;100177.28;5071512;28;20282;-59
2022/05/07 03:30:31;;;;;;;9.17;2.93;;;;;;;15.82;51.22;100175.16;5071944;28;20310;-59
2022/05/07 03:33:02;;;;;;;7.53;3.03;;;;;;;15.62;52.86;100186.44;5073216;28;20484;-59
2022/05/07 03:35:33;;;;;;;8.97;3.77;;;;;;;15.53;54.64;100182.41;5072506;28;20319;-58
2022/05/07 03:38:05;;;;;;;7.20;4.37;;;;;;;15.48;55.29;100183.50;5073604;28;20283;-57
2022/05/07 03:40:35;;;;;;;7.40;3.80;;;;;;;15.38;56.82;100177.72;5074041;28;20286;-57
2022/05/07 03:43:07;;;;;;;7.43;3.57;;;;;;;15.19;57.71;100176.69;5073687;28;20274;-58
2022/05/07 03:45:37;;;;;;;10.67;4.00;;;;;;;15.17;57.73;100173.25;5072200;28;20312;-59
2022/05/07 03:48:09;;;;;;;5.97;3.03;;;;;;;15.17;58.35;100178.50;5072346;28;20295;-58
2022/05/07 03:50:40;;;;;;;10.93;3.07;;;;;;;15.13;59.31;100195.34;5069964;28;20333;-59
2022/05/07 03:56:00;;;;;;;;;;;;;;;14.80;60.83;100198.22;5071932;28;20317;-59
2022/05/07 03:58:31;;;;;;;9.63;3.27;;;;;;;14.59;60.60;100186.69;5072611;28;19924;-58
2022/05/07 04:01:02;;;;;;;9.53;4.13;;;;;;;14.41;61.72;100188.16;5072871;28;20290;-58
2022/05/07 04:03:33;;;;;;;10.90;5.60;;;;;;;14.30;61.87;100195.50;5072909;28;20282;-59
2022/05/07 04:06:04;;;;;;;17.17;9.27;;;;;;;14.27;62.62;100195.63;5073253;28;20278;-58
2022/05/07 04:08:36;;;;;;;12.17;6.90;;;;;;;14.27;62.90;100195.63;5072832;28;20294;-59
2022/05/07 04:11:07;;;;;;;13.57;6.87;;;;;;;14.27;63.93;100180.69;5073521;28;20362;-59
2022/05/07 04:13:37;;;;;;;13.65;6.40;;;;;;;14.24;64.17;100181.66;5072402;28;20496;-59
2022/05/07 04:16:08;;;;;;;12.30;4.75;;;;;;;14.19;64.70;100166.97;5072795;28;20074;-59
2022/05/07 04:18:39;;;;;;;11.83;4.27;;;;;;;14.15;64.53;100155.72;5073068;28;20044;-58
2022/05/07 04:21:10;;;;;;;11.13;4.37;;;;;;;14.20;64.00;100160.78;5072643;28;20299;-58
2022/05/07 04:23:42;;;;;;;8.70;4.00;;;;;;;14.21;64.12;100155.50;5073084;28;20295;-59
2022/05/07 04:26:13;;;;;;;12.57;4.67;;;;;;;14.28;64.16;100171.03;5072117;28;20728;-58
2022/05/07 04:28:43;;;;;;;15.43;8.63;;;;;;;14.35;65.35;100169.94;5072656;28;20293;-58
2022/05/07 04:31:16;;;;;;;34.45;22.38;;;;;;;14.19;66.02;100165.19;5072968;28;20279;-59
2022/05/07 04:33:46;;;;;;;14.73;10.00;;;;;;;13.92;66.81;100158.19;5072974;28;20064;-59
2022/05/07 04:36:17;;;;;;;15.32;12.23;;;;;;;13.75;67.39;100156.97;5071250;28;20293;-58
2022/05/07 04:38:49;;;;;;;12.32;5.90;;;;;;;13.54;68.53;100168.13;5070856;28;20045;-59
2022/05/07 04:41:20;;;;;;;7.83;4.50;;;;;;;13.35;69.71;100173.94;5072274;28;20040;-58
2022/05/07 04:43:50;;;;;;;12.30;4.43;;;;;;;13.43;70.79;100180.69;5069363;28;20302;-59
2022/05/07 04:46:21;;;;;;;11.93;4.63;;;;;;;13.57;70.90;100183.78;5071938;28;20392;-59
2022/05/07 04:48:52;;;;;;;15.02;6.03;;;;;;;13.63;70.92;100173.13;5072390;28;20087;-59
2022/05/07 04:51:23;;;;;;;9.20;4.55;;;;;;;13.66;70.75;100178.25;5072705;28;20349;-58
2022/05/07 04:54:10;;;;;;;13.70;5.55;;;;;;;13.64;70.32;100177.44;5072788;28;20064;-59
2022/05/07 04:56:41;;;;;;;10.80;4.50;;;;;;;13.64;69.12;100181.84;5072832;28;20258;-60
2022/05/07 04:59:11;;;;;;;11.38;4.25;;;;;;;13.68;70.17;100181.72;5072158;28;20048;-59
2022/05/07 05:01:42;;;;;;;13.10;5.00;;;;;;;13.61;69.67;100180.16;5072496;28;20083;-59
2022/05/07 05:04:13;;;;;;;9.30;4.05;;;;;;;13.46;67.91;100170.13;5072445;28;20134;-58
2022/05/07 05:06:44;;;;;;;11.52;4.68;;;;;;;12.82;69.92;100083.63;5072499;28;20102;-58
2022/05/07 05:09:16;;;;;;;10.88;4.68;;;;;;;13.16;71.86;100183.19;5072036;28;20062;-60
2022/05/07 05:11:46;;;;;;;9.57;4.30;;;;;;;12.89;72.78;100175.19;5072221;28;20079;-59
2022/05/07 05:17:05;;;;;;;7.75;3.47;;;;;;;12.44;73.71;100167.63;5071685;28;20048;-60
2022/05/07 05:19:36;;;;;;;8.13;4.07;;;;;;;12.05;74.87;100170.31;5072209;28;20037;-58
2022/05/07 05:22:07;;;;;;;9.52;4.65;;;;;;;11.91;75.19;100176.81;5072262;28;20057;-59
2022/05/07 05:24:40;;;;;;;16.67;10.77;;;;;;;11.61;75.83;100169.59;5072407;28;20134;-59
2022/05/07 05:27:10;;;;;;;15.13;10.18;;;;;;;11.58;76.74;100189.72;5069650;28;20269;-59
2022/05/07 05:29:41;;;;;;;20.42;13.98;;;;;;;11.55;77.16;100179.31;5071708;28;20052;-59
2022/05/07 05:32:17;;;;;;;22.52;14.85;;;;;;;11.47;77.47;100174.25;5070246;28;20117;-59
2022/05/07 05:34:48;;;;;;;8.85;4.55;;;;;;;11.33;78.10;100168.44;5071308;28;20488;-59
2022/05/07 05:37:19;;;;;;;8.48;4.45;;;;;;;11.20;78.50;100157.38;5073092;28;20078;-59
2022/05/07 05:39:52;;;;;;;6.15;3.72;;;;;;;11.05;79.00;100155.94;5076035;28;20060;-59
2022/05/07 05:42:24;;;;;;;7.57;3.58;;;;;;;10.83;79.39;100152.88;5075802;28;20135;-60
2022/05/07 05:44:54;;;;;;;9.50;3.60;;;;;;;10.62;79.96;100148.91;5075947;28;20147;-60
2022/05/07 05:47:25;;;;;;;9.45;4.40;;;;;;;10.57;80.51;100151.59;5075618;28;20048;-59
2022/05/07 05:49:57;;;;;;;9.40;4.45;;;;;;;10.63;80.59;100145.41;5075924;28;20044;-60
2022/05/07 05:52:28;;;;;;;9.15;4.32;;;;;;;10.68;80.92;100140.94;5075368;28;20044;-59
2022/05/07 05:55:00;;;;;;;6.43;3.90;;;;;;;10.77;81.18;100142.53;5075519;28;20064;-59
2022/05/07 05:57:31;;;;;;;10.48;4.60;;;;;;;10.93;81.45;100143.97;5075324;28;20040;-60
2022/05/07 06:00:01;;;;;;;6.97;4.22;;;;;;;11.10;81.72;100145.38;5075142;28;20227;-59
2022/05/07 06:02:32;;;;;;;7.85;4.88;;;;;;;11.26;82.06;100157.25;5072591;28;20040;-60
2022/05/07 06:05:04;;;;;;;8.20;4.45;;;;;;;11.37;82.08;100154.41;5072966;28;20204;-60
2022/05/07 06:07:34;;;;;;;9.20;4.63;;;;;;;11.40;81.64;100154.34;5073514;28;20408;-60
2022/05/07 06:10:08;;;;;;;7.55;4.15;;;;;;;11.37;81.67;100154.41;5073426;28;20066;-60
2022/05/07 06:12:38;;;;;;;6.47;3.33;;;;;;;11.28;79.48;100162.44;5073139;28;20060;-60
2022/05/07 06:15:10;;;;;;;6.70;3.85;;;;;;;11.10;79.57;100167.16;5073894;28;20216;-60
2022/05/07 06:17:41;;;;;;;6.57;3.40;;;;;;;10.98;79.88;100156.94;5073108;28;20309;-60
2022/05/07 06:20:12;;;;;;;4.53;3.10;;;;;;;10.82;80.54;100139.84;5073091;28;20045;-60
2022/05/07 06:22:43;;;;;;;7.00;3.13;;;;;;;10.83;80.20;100162.47;5075047;28;20353;-60
2022/05/07 06:28:02;;;;;;;5.22;2.67;;;;;;;10.66;80.72;100142.75;5074566;28;20055;-61
2022/05/07 06:30:35;;;;;;;5.78;3.30;;;;;;;10.53;81.81;100143.84;5074680;28;20063;-61
2022/05/07 06:33:06;;;;;;;6.07;3.50;;;;;;;10.44;81.81;100155.34;5074915;28;20060;-60
2022/05/07 06:35:36;;;;;;;5.80;3.10;;;;;;;10.39;81.89;100166.78;5074788;28;20318;-60
2022/05/07 06:38:09;;;;;;;5.80;3.30;;;;;;;10.28;81.84;100162.59;5074578;28;20254;-60
2022/05/07 06:40:42;;;;;;;7.45;3.53;;;;;;;10.22;81.46;100154.81;5074992;28;20612;-60
2022/05/07 06:43:13;;;;;;;11.60;6.45;;;;;;;10.07;81.08;100140.25;5074461;28;20052;-60
2022/05/07 06:45:43;;;;;;;6.38;4.70;;;;;;;10.18;81.15;100147.91;5074475;28;20115;-60
2022/05/07 06:48:14;;;;;;;7.63;4.60;;;;;;;10.18;80.67;100150.50;5073821;28;20052;-61
2022/05/07 06:50:45;;;;;;;5.47;2.70;;;;;;;10.17;79.96;100140.97;5073759;28;20063;-60
2022/05/07 06:53:15;;;;;;;5.15;2.97;;;;;;;10.18;80.11;100145.28;5074701;28;20058;-60
2022/05/07 06:55:59;;;;;;;4.68;3.05;;;;;;;9.66;80.18;100045.25;5073906;28;20056;-61
2022/05/07 06:58:31;;;;;;;5.20;2.95;;;;;;;10.23;79.87;100125.19;5072305;28;20168;-61
2022/05/07 07:01:02;;;;;;;2.90;2.60;;;;;;;10.26;79.96;100125.16;5072176;28;20060;-60
2022/05/07 07:03:33;;;;;;;6.78;3.50;;;;;;;10.19;80.55;100081.75;5073121;28;20056;-60
2022/05/07 07:06:04;;;;;;;5.47;3.00;;;;;;;10.38;80.26;100097.13;5072631;28;20282;-60
2022/05/07 07:08:35;;;;;;;7.00;3.47;;;;;;;10.39;80.56;100094.50;5074359;28;20051;-60
2022/05/07 07:11:07;;;;;;;5.82;3.20;;;;;;;10.54;80.65;100093.34;5074260;28;20042;-61
2022/05/07 07:13:38;;;;;;;4.93;3.38;;;;;;;10.71;80.46;100096.50;5073867;28;20123;-61
2022/05/07 07:16:09;;;;;;;4.15;2.83;;;;;;;10.86;79.82;100089.22;5072685;28;20062;-60
2022/05/07 07:18:39;;;;;;;17.15;6.07;;;;;;;10.87;79.64;100085.72;5072983;28;20373;-60
2022/05/07 07:21:11;;;;;;;45.10;22.88;;;;;;;10.73;79.40;100079.03;5072009;28;20123;-60
2022/05/07 07:23:41;;;;;;;7.38;4.20;;;;;;;10.58;80.59;100074.09;5073045;28;20047;-60
2022/05/07 07:26:14;;;;;;;6.50;4.05;;;;;;;10.48;80.99;100072.53;5072902;28;20060;-60
2022/05/07 07:28:45;;;;;;;6.55;4.10;;;;;;;10.34;81.70;100070.19;5073090;28;20052;-61
2022/05/07 07:31:16;;;;;;;11.65;6.80;;;;;;;10.26;82.74;100067.72;5071538;28;20068;-60
2022/05/07 07:33:47;;;;;;;10.27;5.55;;;;;;;10.08;84.56;100073.22;5073234;28;20052;-61
2022/05/07 07:36:17;;;;;;;12.57;6.40;;;;;;;9.93;83.92;100084.78;5072939;28;20056;-60
2022/05/07 07:38:48;;;;;;;29.30;12.13;;;;;;;9.85;84.30;100102.34;5073510;28;20052;-60
2022/05/07 07:41:20;;;;;;;126.43;47.85;;;;;;;9.83;83.66;100115.41;5073286;28;20111;-60
2022/05/07 07:43:51;;;;;;;33.10;13.43;;;;;;;9.91;83.50;100110.09;5073523;28;20056;-60
2022/05/07 07:49:09;;;;;;;14.73;5.20;;;;;;;9.94;82.71;100097.84;5073542;28;20055;-60
2022/05/07 07:51:40;;;;;;;8.32;5.25;;;;;;;9.98;82.66;100087.34;5073412;28;20339;-60
2022/05/07 07:54:10;;;;;;;11.68;4.72;;;;;;;9.99;82.54;100078.63;5073282;28;20052;-60
2022/05/07 07:56:43;;;;;;;8.35;5.22;;;;;;;9.93;82.49;100070.03;5072868;28;20068;-59
2022/05/07 07:59:14;;;;;;;13.20;5.68;;;;;;;9.87;83.29;100067.50;5072134;28;20166;-60
2022/05/07 08:01:44;;;;;;;11.38;5.90;;;;;;;9.82;83.86;100061.50;5070997;28;20071;-60
2022/05/07 08:04:15;;;;;;;12.98;5.55;;;;;;;9.83;84.28;100052.75;5071103;28;20266;-59
2022/05/07 08:11:39;;;;;;;11.70;6.15;;;;;;;9.84;84.24;100044.06;5071623;28;20083;-59
2022/05/07 08:12:26;;;;;;;10.90;5.72;;;;;;;9.45;84.46;99968.19;5072494;28;20053;-59
2022/05/07 08:14:57;;;;;;;13.10;5.60;;;;;;;9.75;84.59;100028.56;5072665;28;20053;-59
2022/05/07 08:17:28;;;;;;;14.70;6.50;;;;;;;9.72;84.44;100018.19;5071161;28;20044;-60
2022/05/07 08:19:59;;;;;;;15.82;8.45;;;;;;;9.72;84.63;100007.75;5072184;28;20091;-59
2022/05/07 08:22:30;;;;;;;15.13;6.97;;;;;;;9.66;85.02;100013.03;5072100;28;20689;-59
2022/05/07 08:25:08;;;;;;;20.48;13.48;;;;;;;9.60;85.04;100007.94;5073008;28;20087;-60
2022/05/07 08:27:40;;;;;;;13.63;9.95;;;;;;;9.46;85.31;99996.00;5072671;28;20052;-59
2022/05/07 08:30:11;;;;;;;14.20;10.35;;;;;;;9.41;85.80;99992.59;5072916;28;20064;-59
2022/05/07 08:32:42;;;;;;;12.07;8.75;;;;;;;9.52;86.14;99983.75;5072366;28;20127;-59
2022/05/07 08:35:13;;;;;;;15.10;9.18;;;;;;;9.59;85.94;99972.31;5072705;28;20047;-59
2022/05/07 08:37:43;;;;;;;11.15;7.38;;;;;;;9.47;85.62;99955.97;5072762;28;20281;-59
2022/05/07 08:40:16;;;;;;;9.38;7.75;;;;;;;9.38;86.02;99970.91;5072592;28;20044;-59
2022/05/07 08:42:48;;;;;;;14.70;13.02;;;;;;;9.47;86.29;99969.03;5072599;28;20492;-59
2022/05/07 08:45:19;;;;;;;17.42;12.60;;;;;;;9.60;86.00;99971.44;5072419;28;20143;-59
2022/05/07 08:47:52;;;;;;;9.57;5.57;;;;;;;9.38;85.31;99966.56;5072454;28;20052;-59
2022/05/07 08:50:24;;;;;;;9.23;4.90;;;;;;;9.26;85.87;99995.41;5072381;28;20365;-59
2022/05/07 08:52:55;;;;;;;19.10;7.68;;;;;;;9.35;85.98;99982.25;5072100;28;20230;-59
2022/05/07 08:55:25;;;;;;;22.27;11.65;;;;;;;9.52;85.94;99988.97;5071266;28;20052;-58
2022/05/07 08:57:58;;;;;;;9.77;5.70;;;;;;;9.58;84.81;99954.94;5071757;28;20059;-58
2022/05/07 09:00:29;;;;;;;13.18;5.15;;;;;;;9.60;82.97;99955.78;5069083;28;20071;-59
2022/05/07 09:03:01;;;;;;;10.15;4.72;;;;;;;9.60;79.04;99950.56;5071725;28;20058;-58
2022/05/07 09:05:37;;;;;;;8.60;4.63;;;;;;;9.41;78.82;99923.91;5070976;28;20335;-59
2022/05/07 09:08:10;;;;;;;10.35;4.97;;;;;;;9.19;78.87;99939.06;5071714;28;20335;-58
2022/05/07 09:10:43;;;;;;;7.40;4.75;;;;;;;9.18;79.28;99942.56;5072517;28;20052;-58
2022/05/07 09:13:17;;;;;;;6.63;3.75;;;;;;;9.17;77.81;99922.59;5074864;28;20051;-58
2022/05/07 09:15:55;;;;;;;10.00;4.25;;;;;;;9.27;77.69;99942.41;5076125;28;20627;-59
2022/05/07 09:18:28;;;;;;;8.32;3.83;;;;;;;9.15;75.94;99922.59;5074566;28;20052;-59
2022/05/07 09:21:15;;;;;;;9.73;4.45;;;;;;;8.99;76.14;99916.78;5074185;28;20123;-58
2022/05/07 09:23:48;;;;;;;11.93;3.83;;;;;;;8.97;77.32;99955.03;5075777;28;20401;-57
2022/05/07 09:26:29;;;;;;;7.05;3.88;;;;;;;8.94;77.47;99952.47;5076241;28;20212;-59
2022/05/07 09:29:03;;;;;;;13.73;6.30;;;;;;;8.85;76.83;99924.81;5075774;28;20116;-58
2022/05/07 09:31:35;;;;;;;6.28;3.63;;;;;;;9.10;74.92;99960.06;5075745;28;20052;-58
2022/05/07 09:37:01;;;;;;;7.60;3.53;;;;;;;8.88;74.68;99955.16;5075277;28;20057;-58
2022/05/07 09:39:35;;;;;;;8.82;3.67;;;;;;;8.81;74.43;99949.19;5075368;28;20087;-58
2022/05/07 09:42:08;;;;;;;6.00;3.13;;;;;;;8.84;75.17;99969.13;5076068;28;20071;-58
2022/05/07 09:44:42;;;;;;;7.47;2.55;;;;;;;8.72;73.34;99974.50;5076157;28;20044;-57
2022/05/07 09:47:13;;;;;;;5.05;2.90;;;;;;;8.70;74.76;99991.91;5075524;28;20087;-57
2022/05/07 09:52:30;;;;;;;8.57;3.28;;;;;;;8.71;75.82;99983.19;5074845;28;20052;-57
2022/05/07 09:57:49;;;;;;;8.02;3.25;;;;;;;8.59;76.27;99969.47;5073993;28;20621;-57
2022/05/07 10:00:23;;;;;;;11.02;5.55;;;;;;;8.42;78.27;99987.03;5073406;28;20059;-57
2022/05/07 10:03:26;;;;;;;5.68;3.20;;;;;;;8.25;77.05;99983.72;5074802;28;20078;-58
2022/05/07 10:06:19;;;;;;;9.50;4.65;;;;;;;8.18;79.28;99994.19;5075406;28;20427;-56
2022/05/07 10:09:05;;;;;;;15.52;6.18;;;;;;;8.37;80.15;99987.06;5075222;28;20059;-57
2022/05/07 10:11:36;;;;;;;10.27;5.40;;;;;;;8.16;80.56;99980.38;5075530;28;20083;-57
2022/05/07 10:14:06;;;;;;;15.50;5.72;;;;;;;8.21;80.97;99978.56;5074887;28;20040;-58
2022/05/07 10:16:39;;;;;;;8.45;3.88;;;;;;;8.09;81.22;100004.72;5074747;28;20071;-57
2022/05/07 10:19:13;;;;;;;3.65;2.65;;;;;;;7.99;78.55;99971.88;5075309;28;20406;-56
2022/05/07 10:21:54;;;;;;;4.25;2.35;;;;;;;8.02;76.13;99966.63;5075322;28;20059;-57
2022/05/07 10:24:25;;;;;;;5.63;3.33;;;;;;;8.02;75.48;99977.03;5073646;28;20675;-58
2022/05/07 10:26:56;;;;;;;5.05;3.08;;;;;;;8.08;78.13;99956.13;5074833;28;20250;-57
2022/05/07 10:29:29;;;;;;;3.25;2.00;;;;;;;8.16;76.18;99948.25;5074819;28;20047;-57
2022/05/07 10:32:08;;;;;;;4.72;1.90;;;;;;;8.22;75.64;99953.41;5073033;28;20052;-56
2022/05/07 10:34:39;;;;;;;2.78;2.08;;;;;;;8.31;75.35;99957.63;5074963;28;20221;-56
2022/05/07 10:37:10;;;;;;;3.47;2.50;;;;;;;8.00;75.77;99914.59;5074742;28;20124;-56
2022/05/07 10:39:52;;;;;;;6.00;2.65;;;;;;;8.26;76.57;99954.22;5074519;28;20115;-56
2022/05/07 10:42:27;;;;;;;4.38;2.65;;;;;;;8.42;76.66;99976.63;5074541;28;20059;-56
2022/05/07 10:44:57;;;;;;;3.97;1.90;;;;;;;8.35;76.76;99972.34;5074439;28;20060;-57
2022/05/07 10:47:30;;;;;;;3.75;1.73;;;;;;;8.32;75.90;99974.97;5074537;28;20080;-56
2022/05/07 10:50:11;;;;;;;3.58;1.85;;;;;;;8.34;73.99;99970.63;5074387;28;20084;-57
2022/05/07 10:52:43;;;;;;;2.42;1.60;;;;;;;8.28;72.53;99962.88;5073934;28;20060;-56
2022/05/07 10:55:16;;;;;;;2.17;1.48;;;;;;;8.12;73.07;99957.84;5074071;28;20064;-56
2022/05/07 10:57:48;;;;;;;4.20;1.83;;;;;;;8.14;74.31;99950.03;5074245;28;20049;-56
2022/05/07 11:00:20;;;;;;;2.92;1.90;;;;;;;8.06;75.61;99952.69;5074099;28;20499;-56
2022/05/07 11:02:58;;;;;;;3.40;1.80;;;;;;;7.89;76.01;99949.44;5073905;28;20098;-56
2022/05/07 11:05:33;;;;;;;1.90;1.50;;;;;;;7.91;75.66;99976.28;5074365;28;20060;-57
2022/05/07 11:08:04;;;;;;;4.63;1.58;;;;;;;7.81;76.04;99952.09;5074461;28;20087;-56
2022/05/07 11:10:35;;;;;;;3.15;1.55;;;;;;;7.97;75.51;99965.81;5071681;28;20342;-56
2022/05/07 11:13:09;;;;;;;2.40;1.75;;;;;;;8.05;75.32;99953.59;5074129;28;20059;-57
2022/05/07 11:15:41;;;;;;;5.07;2.40;;;;;;;7.90;75.46;99930.34;5074361;28;20143;-57
2022/05/07 11:18:17;;;;;;;4.63;1.73;;;;;;;7.85;74.73;99903.50;5073930;28;20088;-56
2022/05/07 11:20:48;;;;;;;4.07;1.90;;;;;;;7.96;75.17;99925.06;5071957;28;20181;-58
2022/05/07 11:23:19;;;;;;;3.85;2.00;;;;;;;7.60;77.00;99927.16;5071249;28;20049;-58
2022/05/07 11:25:52;;;;;;;8.30;2.88;;;;;;;7.43;78.12;99923.88;5073558;28;20083;-57
2022/05/07 11:28:23;;;;;;;7.97;2.50;;;;;;;7.41;78.27;99930.81;5073798;28;20071;-58
2022/05/07 11:30:55;;;;;;;3.55;2.30;;;;;;;7.39;79.17;99906.56;5073811;28;20052;-57
2022/05/07 11:33:27;;;;;;;7.85;2.88;;;;;;;7.39;79.42;99896.16;5072044;28;20090;-57
2022/05/07 11:36:06;;;;;;;5.68;2.40;;;;;;;7.57;79.71;99898.59;5072263;28;20056;-57
2022/05/07 11:38:37;;;;;;;3.33;2.40;;;;;;;7.67;80.27;99892.44;5073711;28;20040;-57
2022/05/07 11:41:16;;;;;;;4.50;2.60;;;;;;;7.66;79.46;99864.72;5073551;28;20238;-57
2022/05/07 11:46:55;;;;;;;4.40;2.75;;;;;;;7.73;79.21;99861.13;5067862;28;20052;-57
2022/05/07 11:49:35;;;;;;;4.25;2.58;;;;;;;7.72;79.48;99859.44;5068766;28;20123;-58
2022/05/07 11:52:06;;;;;;;4.22;2.17;;;;;;;7.64;78.50;99850.88;5069581;28;20552;-58
2022/05/07 11:54:37;;;;;;;5.10;2.63;;;;;;;7.52;78.47;99871.78;5071684;28;20584;-57
2022/05/07 11:57:08;;;;;;;3.65;2.40;;;;;;;7.46;79.14;99882.22;5070053;28;20069;-57
2022/05/07 11:59:44;;;;;;;5.60;2.63;;;;;;;7.46;78.99;99845.84;5073213;28;20357;-58
2022/05/07 12:02:15;;;;;;;3.17;2.25;;;;;;;7.46;79.25;99856.25;5071344;28;20323;-57
2022/05/07 12:04:47;;;;;;;3.42;2.10;;;;;;;7.71;79.51;99857.72;5072114;28;20067;-56
2022/05/07 12:07:18;;;;;;;2.88;2.13;;;;;;;7.85;78.43;99833.28;5072696;28;20071;-57
2022/05/07 12:09:49;;;;;;;3.63;2.20;;;;;;;7.85;78.34;99833.28;5072890;28;20132;-57
2022/05/07 12:12:19;;;;;;;3.85;2.25;;;;;;;7.85;77.93;99809.88;5071269;28;20075;-55
2022/05/07 12:14:53;;;;;;;4.85;2.33;;;;;;;7.77;78.14;99816.03;5072787;28;20048;-56
2022/05/07 12:20:13;;;;;;;3.72;2.50;;;;;;;7.42;77.85;99763.59;5072987;28;20102;-57
2022/05/07 12:31:07;;;;;;;5.45;2.50;;;;;;;7.27;79.05;99731.69;5069322;28;20056;-58